Time;durP1;ratioP1;P1;durP2;ratioP2;P2;SDS_P1;SDS_P2;PMS_P1;PMS_P2;Temp;Humidity;BMP_temperature;BMP_pressure;BME280_temperature;BME280_humidity;BME280_pressure;Samples;Min_cycle;Max_cycle;Signal;HPM_P1;HPM_P2
2022/11/12 00:01:58;;;;;;;0.00;0.00;;;;;;;;;;5017177;28;20558;-74
2022/11/12 00:04:45;;;;;;;0.10;0.10;;;;;;;;;;5017210;28;20660;-73
2022/11/12 00:07:31;;;;;;;0.10;0.10;;;;;;;;;;5014722;28;20642;-74
2022/11/12 00:10:18;;;;;;;0.10;0.10;;;;;;;;;;5016192;28;20578;-74
2022/11/12 00:13:05;;;;;;;0.00;0.00;;;;;;;;;;5015200;28;20586;-73
2022/11/12 00:15:52;;;;;;;0.10;0.10;;;;;;;;;;5013866;28;20677;-74
2022/11/12 00:18:38;;;;;;;0.10;0.10;;;;;;;;;;5013723;28;20613;-73
2022/11/12 00:21:24;;;;;;;0.10;0.10;;;;;;;;;;5016833;28;20621;-74
2022/11/12 00:24:10;;;;;;;0.10;0.10;;;;;;;;;;5016621;28;20567;-73
2022/11/12 00:26:57;;;;;;;0.10;0.10;;;;;;;;;;5014435;28;20687;-74
2022/11/12 00:29:44;;;;;;;0.07;0.07;;;;;;;;;;5016208;28;20935;-73
2022/11/12 00:32:31;;;;;;;0.10;0.10;;;;;;;;;;5014645;28;20586;-73
2022/11/12 00:35:17;;;;;;;0.00;0.00;;;;;;;;;;5018904;28;20606;-74
2022/11/12 00:38:03;;;;;;;0.10;0.10;;;;;;;;;;5019364;28;20579;-74
2022/11/12 00:40:50;;;;;;;0.10;0.10;;;;;;;;;;5018116;28;20992;-73
2022/11/12 00:43:36;;;;;;;0.10;0.10;;;;;;;;;;5017440;28;20688;-74
2022/11/12 00:46:24;;;;;;;0.00;0.00;;;;;;;;;;5017515;28;20664;-73
2022/11/12 00:49:10;;;;;;;0.10;0.10;;;;;;;;;;5018453;28;20995;-73
2022/11/12 00:51:56;;;;;;;0.10;0.10;;;;;;;;;;5018502;28;20581;-73
2022/11/12 00:54:43;;;;;;;0.10;0.10;;;;;;;;;;5017714;28;20726;-73
2022/11/12 00:57:29;;;;;;;0.00;0.00;;;;;;;;;;5019349;28;20636;-72
2022/11/12 01:00:16;;;;;;;0.10;0.10;;;;;;;;;;5018707;28;20825;-74
2022/11/12 01:03:04;;;;;;;0.10;0.10;;;;;;;;;;5018471;28;20570;-73
2022/11/12 01:05:50;;;;;;;0.10;0.10;;;;;;;;;;5019261;28;20701;-73
2022/11/12 01:08:36;;;;;;;0.10;0.10;;;;;;;;;;5020085;28;20642;-73
2022/11/12 01:11:23;;;;;;;0.10;0.10;;;;;;;;;;5017741;28;20658;-73
2022/11/12 01:14:11;;;;;;;0.10;0.10;;;;;;;;;;5019087;28;20605;-73
2022/11/12 01:16:57;;;;;;;0.10;0.10;;;;;;;;;;5017349;28;20814;-73
2022/11/12 01:19:45;;;;;;;0.10;0.10;;;;;;;;;;5016494;28;20585;-73
2022/11/12 01:22:31;;;;;;;0.10;0.10;;;;;;;;;;5017012;28;20582;-73
2022/11/12 01:25:17;;;;;;;0.10;0.10;;;;;;;;;;5017689;28;20618;-73
2022/11/12 01:28:03;;;;;;;0.10;0.10;;;;;;;;;;5019260;28;20649;-73
2022/11/12 01:30:50;;;;;;;0.10;0.10;;;;;;;;;;5017027;28;20575;-73
2022/11/12 01:33:36;;;;;;;0.10;0.10;;;;;;;;;;5014450;28;20586;-73
2022/11/12 01:36:24;;;;;;;0.10;0.10;;;;;;;;;;5017576;28;20783;-73
2022/11/12 01:39:11;;;;;;;0.10;0.10;;;;;;;;;;5017744;28;20673;-73
2022/11/12 01:41:57;;;;;;;0.10;0.10;;;;;;;;;;5015255;28;20571;-74
2022/11/12 01:44:45;;;;;;;0.10;0.10;;;;;;;;;;5018086;28;20713;-72
2022/11/12 01:47:33;;;;;;;0.10;0.10;;;;;;;;;;5013346;28;20674;-73
2022/11/12 01:50:22;;;;;;;0.10;0.10;;;;;;;;;;5017108;28;20570;-72
2022/11/12 01:53:13;;;;;;;0.10;0.10;;;;;;;;;;5018912;28;21338;-73
2022/11/12 01:56:00;;;;;;;0.00;0.00;;;;;;;;;;5018318;28;20685;-73
2022/11/12 01:58:47;;;;;;;0.00;0.00;;;;;;;;;;5017252;28;20621;-73
2022/11/12 02:01:33;;;;;;;0.10;0.10;;;;;;;;;;5017008;28;20586;-73
2022/11/12 02:04:20;;;;;;;0.10;0.10;;;;;;;;;;5019451;28;20566;-73
2022/11/12 02:07:06;;;;;;;0.10;0.10;;;;;;;;;;5017886;28;20626;-73
2022/11/12 02:09:54;;;;;;;0.10;0.10;;;;;;;;;;5016872;28;20698;-73
2022/11/12 02:15:45;;;;;;;0.10;0.10;;;;;;;;;;5015647;28;20621;-72
2022/11/12 02:18:31;;;;;;;0.10;0.10;;;;;;;;;;5017064;28;20574;-73
2022/11/12 02:21:20;;;;;;;0.00;0.00;;;;;;;;;;5014989;28;20738;-73
2022/11/12 02:24:27;;;;;;;0.10;0.10;;;;;;;;;;5017066;28;20582;-73
2022/11/12 02:27:13;;;;;;;0.10;0.10;;;;;;;;;;5016218;28;20676;-75
2022/11/12 02:29:59;;;;;;;0.10;0.10;;;;;;;;;;5016071;28;20586;-73
2022/11/12 02:32:45;;;;;;;0.10;0.10;;;;;;;;;;5016207;28;20581;-74
2022/11/12 02:35:32;;;;;;;0.00;0.00;;;;;;;;;;5016622;28;20702;-74
2022/11/12 02:38:19;;;;;;;0.10;0.10;;;;;;;;;;5016736;28;21209;-74
2022/11/12 02:41:06;;;;;;;0.10;0.10;;;;;;;;;;5016201;28;20583;-74
2022/11/12 02:43:52;;;;;;;0.10;0.10;;;;;;;;;;5016135;28;21202;-73
2022/11/12 02:46:38;;;;;;;0.10;0.10;;;;;;;;;;5015540;28;20673;-74
2022/11/12 02:49:25;;;;;;;0.10;0.10;;;;;;;;;;5016154;28;20606;-73
2022/11/12 02:52:11;;;;;;;0.10;0.10;;;;;;;;;;5017443;28;20721;-73
2022/11/12 02:54:59;;;;;;;0.10;0.10;;;;;;;;;;5014945;28;20598;-72
2022/11/12 02:57:45;;;;;;;0.10;0.10;;;;;;;;;;5016886;28;21250;-72
2022/11/12 03:00:31;;;;;;;0.10;0.10;;;;;;;;;;5015904;28;20606;-73
2022/11/12 03:03:18;;;;;;;0.10;0.10;;;;;;;;;;5015417;28;20709;-73
2022/11/12 03:06:05;;;;;;;0.10;0.10;;;;;;;;;;5017871;28;20677;-73
2022/11/12 03:08:51;;;;;;;0.10;0.10;;;;;;;;;;5015241;28;20566;-72
2022/11/12 03:11:38;;;;;;;0.10;0.10;;;;;;;;;;5017036;28;20586;-73
2022/11/12 03:14:25;;;;;;;0.03;0.03;;;;;;;;;;5017710;28;20590;-73
2022/11/12 03:17:12;;;;;;;0.10;0.10;;;;;;;;;;5016936;28;20757;-72
2022/11/12 03:19:58;;;;;;;0.10;0.10;;;;;;;;;;5017396;22;20705;-73
2022/11/12 03:22:55;;;;;;;0.10;0.10;;;;;;;;;;4995116;28;20619;-73
2022/11/12 03:25:41;;;;;;;0.10;0.10;;;;;;;;;;4994267;28;20735;-74
2022/11/12 03:28:29;;;;;;;0.10;0.10;;;;;;;;;;4995804;28;20709;-74
2022/11/12 03:31:15;;;;;;;0.10;0.10;;;;;;;;;;4996956;28;20611;-74
2022/11/12 03:34:02;;;;;;;0.10;0.10;;;;;;;;;;4993969;28;20606;-73
2022/11/12 03:36:47;;;;;;;0.00;0.00;;;;;;;;;;4994758;28;20623;-74
2022/11/12 03:39:34;;;;;;;0.10;0.10;;;;;;;;;;4994813;28;20606;-74
2022/11/12 03:42:20;;;;;;;0.10;0.10;;;;;;;;;;4996980;28;20822;-74
2022/11/12 03:45:08;;;;;;;0.10;0.10;;;;;;;;;;4994342;28;20619;-73
2022/11/12 03:47:55;;;;;;;0.10;0.10;;;;;;;;;;4994194;28;20670;-74
2022/11/12 03:50:41;;;;;;;0.10;0.10;;;;;;;;;;4993175;28;20606;-74
2022/11/12 03:53:27;;;;;;;0.10;0.10;;;;;;;;;;4994697;28;20733;-73
2022/11/12 03:56:14;;;;;;;0.10;0.10;;;;;;;;;;4995014;28;20642;-73
2022/11/12 03:59:00;;;;;;;0.10;0.10;;;;;;;;;;4995756;28;20610;-73
2022/11/12 04:01:48;;;;;;;0.10;0.10;;;;;;;;;;4994533;28;20629;-73
2022/11/12 04:10:38;;;;;;;0.10;0.10;;;;;;;;;;4998345;28;20634;-74
2022/11/12 04:13:29;;;;;;;0.10;0.10;;;;;;;;;;5000259;28;20609;-73
2022/11/12 04:22:25;;;;;;;0.10;0.10;;;;;;;;;;4998419;28;20641;-74
2022/11/12 04:28:16;;;;;;;0.10;0.10;;;;;;;;;;4997320;28;20674;-73
2022/11/12 04:31:01;;;;;;;0.10;0.10;;;;;;;;;;4998179;28;20595;-74
2022/11/12 04:33:47;;;;;;;0.10;0.10;;;;;;;;;;4997371;28;20598;-73
2022/11/12 04:36:34;;;;;;;0.10;0.10;;;;;;;;;;4997522;28;20635;-73
2022/11/12 04:39:21;;;;;;;0.10;0.10;;;;;;;;;;4995291;28;20603;-73
2022/11/12 04:45:12;;;;;;;0.10;0.10;;;;;;;;;;4997024;28;20653;-73
2022/11/12 04:47:59;;;;;;;0.10;0.10;;;;;;;;;;4996927;28;20614;-74
2022/11/12 04:50:48;;;;;;;0.10;0.10;;;;;;;;;;4997716;28;20626;-73
2022/11/12 04:53:35;;;;;;;0.10;0.10;;;;;;;;;;4995611;28;20620;-73
2022/11/12 04:56:21;;;;;;;0.10;0.10;;;;;;;;;;4995608;28;20732;-73
2022/11/12 04:59:08;;;;;;;0.10;0.10;;;;;;;;;;4998018;28;20599;-74
2022/11/12 05:01:54;;;;;;;0.10;0.10;;;;;;;;;;4997535;28;20599;-74
2022/11/12 05:04:41;;;;;;;0.10;0.10;;;;;;;;;;4996933;28;20603;-74
2022/11/12 05:07:27;;;;;;;0.10;0.10;;;;;;;;;;4996268;28;20670;-74
2022/11/12 05:10:15;;;;;;;0.10;0.10;;;;;;;;;;4996106;28;20680;-74
2022/11/12 05:13:01;;;;;;;0.10;0.10;;;;;;;;;;4997912;28;20722;-74
2022/11/12 05:15:48;;;;;;;0.10;0.10;;;;;;;;;;4994893;28;20627;-74
2022/11/12 05:18:34;;;;;;;0.10;0.10;;;;;;;;;;4998559;28;20594;-73
2022/11/12 05:24:25;;;;;;;0.10;0.10;;;;;;;;;;4998081;28;20747;-74
2022/11/12 05:27:12;;;;;;;0.10;0.10;;;;;;;;;;4997371;28;21262;-74
2022/11/12 05:29:59;;;;;;;0.10;0.10;;;;;;;;;;4998020;28;20595;-74
2022/11/12 05:32:45;;;;;;;0.10;0.10;;;;;;;;;;4996823;28;20599;-74
2022/11/12 05:35:31;;;;;;;0.10;0.10;;;;;;;;;;4996500;28;20630;-74
2022/11/12 05:38:18;;;;;;;0.10;0.10;;;;;;;;;;4995356;28;20630;-74
2022/11/12 05:41:04;;;;;;;0.10;0.10;;;;;;;;;;4997135;28;20599;-74
2022/11/12 05:43:52;;;;;;;0.10;0.10;;;;;;;;;;4996659;28;20776;-74
2022/11/12 05:46:38;;;;;;;0.10;0.10;;;;;;;;;;4997380;28;20721;-74
2022/11/12 05:49:25;;;;;;;0.10;0.10;;;;;;;;;;4997970;28;20961;-74
2022/11/12 05:52:11;;;;;;;0.10;0.10;;;;;;;;;;4998168;28;20626;-74
2022/11/12 05:54:57;;;;;;;0.10;0.10;;;;;;;;;;4998260;28;20619;-74
2022/11/12 05:57:43;;;;;;;0.00;0.00;;;;;;;;;;4997399;28;20721;-74
2022/11/12 06:00:37;;;;;;;0.10;0.10;;;;;;;;;;4997023;28;20618;-74
2022/11/12 06:03:24;;;;;;;0.10;0.10;;;;;;;;;;4996378;28;20617;-74
2022/11/12 06:06:10;;;;;;;0.10;0.10;;;;;;;;;;4995505;28;20651;-73
2022/11/12 06:08:56;;;;;;;0.10;0.10;;;;;;;;;;4997128;28;20673;-73
2022/11/12 06:11:43;;;;;;;0.10;0.10;;;;;;;;;;4997117;28;20606;-74
2022/11/12 06:14:29;;;;;;;0.10;0.10;;;;;;;;;;4995418;28;20682;-74
2022/11/12 06:17:17;;;;;;;0.10;0.10;;;;;;;;;;4995544;28;20635;-74
2022/11/12 06:20:03;;;;;;;0.10;0.10;;;;;;;;;;4995715;28;20626;-74
2022/11/12 06:22:50;;;;;;;0.10;0.10;;;;;;;;;;4997723;28;20634;-74
2022/11/12 06:25:36;;;;;;;0.10;0.10;;;;;;;;;;4996414;28;20626;-74
2022/11/12 06:28:22;;;;;;;0.10;0.10;;;;;;;;;;4997876;28;20595;-74
2022/11/12 06:31:09;;;;;;;0.10;0.10;;;;;;;;;;4996391;28;20598;-74
2022/11/12 06:33:56;;;;;;;0.10;0.10;;;;;;;;;;4996936;28;20618;-74
2022/11/12 06:36:41;;;;;;;0.10;0.10;;;;;;;;;;4995885;28;20642;-74
2022/11/12 06:39:27;;;;;;;0.10;0.10;;;;;;;;;;4995459;28;20623;-74
2022/11/12 06:42:13;;;;;;;0.20;0.20;;;;;;;;;;4994451;28;20694;-74
2022/11/12 06:45:00;;;;;;;0.10;0.10;;;;;;;;;;4996528;28;20804;-74
2022/11/12 06:47:46;;;;;;;0.10;0.10;;;;;;;;;;4994301;28;20671;-74
2022/11/12 06:50:33;;;;;;;0.10;0.10;;;;;;;;;;4994803;28;20615;-74
2022/11/12 06:53:19;;;;;;;0.10;0.10;;;;;;;;;;4993606;28;20606;-74
2022/11/12 06:56:06;;;;;;;0.10;0.10;;;;;;;;;;4995248;28;20691;-74
2022/11/12 06:58:53;;;;;;;0.10;0.10;;;;;;;;;;4995030;28;20626;-74
2022/11/12 07:01:39;;;;;;;0.10;0.10;;;;;;;;;;4994908;28;20641;-73
2022/11/12 07:04:26;;;;;;;0.10;0.10;;;;;;;;;;4994180;28;20702;-74
2022/11/12 07:07:13;;;;;;;0.10;0.10;;;;;;;;;;4995054;28;20809;-74
2022/11/12 07:09:59;;;;;;;0.10;0.10;;;;;;;;;;4995518;28;20614;-74
2022/11/12 07:12:46;;;;;;;0.10;0.10;;;;;;;;;;4994226;28;20642;-73
2022/11/12 07:15:32;;;;;;;0.10;0.10;;;;;;;;;;4995137;28;20649;-74
2022/11/12 07:18:18;;;;;;;0.10;0.10;;;;;;;;;;4995547;28;20626;-74
2022/11/12 07:21:06;;;;;;;0.10;0.10;;;;;;;;;;4992597;28;20675;-74
2022/11/12 07:23:54;;;;;;;0.10;0.10;;;;;;;;;;4994219;28;20681;-73
2022/11/12 07:26:40;;;;;;;0.10;0.10;;;;;;;;;;4994106;28;20666;-74
2022/11/12 07:29:26;;;;;;;0.10;0.10;;;;;;;;;;4993928;28;20642;-74
2022/11/12 07:32:12;;;;;;;0.10;0.10;;;;;;;;;;4994433;28;20622;-74
2022/11/12 07:34:58;;;;;;;0.10;0.10;;;;;;;;;;4995281;28;20598;-74
2022/11/12 07:37:45;;;;;;;0.10;0.10;;;;;;;;;;4993325;28;21230;-74
2022/11/12 07:40:32;;;;;;;0.10;0.10;;;;;;;;;;4993699;28;20753;-75
2022/11/12 07:43:19;;;;;;;0.10;0.10;;;;;;;;;;4998176;28;20623;-74
2022/11/12 07:46:06;;;;;;;0.10;0.10;;;;;;;;;;4998926;28;20678;-74
2022/11/12 07:48:53;;;;;;;0.10;0.10;;;;;;;;;;4999332;28;20602;-74
2022/11/12 07:51:39;;;;;;;0.10;0.10;;;;;;;;;;4996381;28;20742;-74
2022/11/12 07:54:26;;;;;;;0.10;0.10;;;;;;;;;;5000188;28;20626;-74
2022/11/12 07:57:13;;;;;;;0.10;0.10;;;;;;;;;;4998099;28;20644;-74
2022/11/12 07:59:59;;;;;;;0.10;0.10;;;;;;;;;;4998962;28;20729;-74
2022/11/12 08:02:46;;;;;;;0.10;0.10;;;;;;;;;;4999036;28;20655;-74
2022/11/12 08:05:31;;;;;;;0.10;0.10;;;;;;;;;;4997462;28;20611;-74
2022/11/12 08:08:18;;;;;;;0.10;0.10;;;;;;;;;;4995565;28;20698;-74
2022/11/12 08:11:04;;;;;;;0.10;0.10;;;;;;;;;;4998626;28;20607;-74
2022/11/12 08:13:52;;;;;;;0.10;0.10;;;;;;;;;;4998139;28;20761;-74
2022/11/12 08:16:39;;;;;;;0.10;0.10;;;;;;;;;;4995190;28;20671;-74
2022/11/12 08:19:25;;;;;;;0.03;0.03;;;;;;;;;;4998931;28;20981;-74
2022/11/12 08:22:11;;;;;;;0.10;0.10;;;;;;;;;;4996075;28;20607;-74
2022/11/12 08:24:57;;;;;;;0.10;0.10;;;;;;;;;;4995993;28;20764;-74
2022/11/12 08:27:44;;;;;;;0.10;0.10;;;7.10;99.90;;;;;;4994113;28;20669;-74
2022/11/12 08:30:31;;;;;;;0.10;0.10;;;7.90;99.90;;;;;;4998546;28;20715;-74
2022/11/12 08:33:17;;;;;;;0.10;0.10;;;;;;;;;;4999054;28;20595;-74
2022/11/12 08:36:04;;;;;;;0.10;0.10;;;;;;;;;;4997477;28;20724;-74
2022/11/12 08:38:53;;;;;;;0.10;0.10;;;;;;;;;;4997461;28;21177;-74
2022/11/12 08:41:39;;;;;;;0.10;0.10;;;;;;;;;;4997056;28;20618;-74
2022/11/12 08:44:26;;;;;;;0.10;0.10;;;;;;;;;;4999726;28;20702;-74
2022/11/12 08:47:14;;;;;;;0.10;0.10;;;;;;;;;;4997245;28;20840;-74
2022/11/12 08:50:00;;;;;;;0.10;0.10;;;;;;;;;;4996312;28;20602;-74
2022/11/12 08:52:46;;;;;;;0.00;0.00;;;;;;;;;;4999513;28;20610;-74
2022/11/12 08:55:32;;;;;;;0.10;0.10;;;;;;;;;;4996187;28;20617;-74
2022/11/12 08:58:19;;;;;;;0.00;0.00;;;;;;;;;;4997382;28;20615;-74
2022/11/12 09:01:06;;;;;;;0.10;0.10;;;;;;;;;;4996363;28;20607;-74
2022/11/12 09:03:53;;;;;;;0.00;0.00;;;;;;;;;;4997211;28;20698;-74
2022/11/12 09:06:39;;;;;;;0.10;0.10;;;;;;;;;;4995823;28;20631;-74
2022/11/12 09:09:26;;;;;;;0.10;0.10;;;;;;;;;;4995939;28;20634;-73
2022/11/12 09:12:17;;;;;;;0.10;0.10;;;;;;;;;;4997403;28;20598;-72
2022/11/12 09:15:03;;;;;;;0.10;0.10;;;;;;;;;;4999296;28;20610;-72
2022/11/12 09:17:49;;;;;;;0.10;0.10;;;;;;;;;;5030434;23;20708;-71
2022/11/12 09:20:37;;;;;;;0.10;0.10;;;;;;;;;;5026930;28;20629;-71
2022/11/12 09:23:23;;;;;;;0.10;0.10;;;;;;;;;;5026695;28;20598;-71
2022/11/12 09:26:09;;;;;;;0.10;0.10;;;;;;;;;;5027340;28;20598;-71
2022/11/12 09:28:56;;;;;;;0.10;0.10;;;;;;;;;;5027325;28;20766;-71
2022/11/12 09:31:42;;;;;;;0.00;0.00;;;;;;;;;;5026362;22;20688;-78
2022/11/12 09:34:29;;;;;;;0.10;0.10;;;;;;;;;;5017945;28;20606;-78
2022/11/12 09:37:17;;;;;;;0.03;0.03;;;;;;;;;;5014864;28;20649;-75
2022/11/12 09:40:03;;;;;;;0.00;0.00;;;;;;;;;;5016935;28;20614;-75
2022/11/12 09:42:52;;;;;;;0.10;0.10;;;;;;;;;;5017449;28;20656;-76
2022/11/12 09:45:38;;;;;;;0.00;0.00;;;;;;;;;;5018422;28;20645;-76
2022/11/12 09:48:27;;;;;;;0.10;0.10;;;;;;;;;;5019107;28;20668;-76
2022/11/12 09:51:22;;;;;;;0.00;0.00;;;;;;;;;;5019493;28;20572;-76
2022/11/12 09:54:18;;;;;;;0.00;0.00;;;;;;;;;;5019314;28;20258;-76
2022/11/12 09:57:04;;;;;;;0.10;0.10;;;;;;;;;;5017857;28;20203;-78
2022/11/12 09:59:50;;;;;;;0.10;0.10;;;;;;;;;;5017180;28;20212;-78
2022/11/12 10:02:38;;;;;;;0.10;0.10;;;;;;;;;;5019008;28;20231;-80
2022/11/12 10:05:27;;;;;;;0.00;0.00;;;;;;;;;;5018897;28;20207;-77
2022/11/12 10:08:23;;;;;;;0.00;0.00;;;;;;;;;;5018859;28;20223;-77
2022/11/12 10:11:19;;;;;;;0.00;0.00;;;;;;;;;;5019101;28;20219;-77
2022/11/12 10:14:12;;;;;;;0.00;0.00;;;;;;;;;;5017560;28;20203;-77
2022/11/12 10:17:04;;;;;;;0.00;0.00;;;;;;;;;;5013107;28;20725;-77
2022/11/12 10:19:56;;;;;;;0.00;0.00;;;;;;;;;;5018628;28;20242;-77
2022/11/12 10:22:48;;;;;;;0.10;0.10;;;;;;;;;;5019237;28;20242;-76
2022/11/12 10:25:35;;;;;;;0.00;0.00;;;;;;;;;;5017189;28;20230;-74
2022/11/12 10:28:27;;;;;;;0.00;0.00;;;;;;;;;;5020098;28;20334;-76
2022/11/12 10:31:14;;;;;;;0.00;0.00;;;;;;;;;;5018904;28;20733;-74
2022/11/12 10:34:10;;;;;;;0.00;0.00;;;;;;;;;;5017910;28;20210;-76
2022/11/12 10:37:00;;;;;;;0.00;0.00;;;;;;;;;;5018396;28;20285;-76
2022/11/12 10:39:47;;;;;;;0.00;0.00;;;;;;;;;;5017723;28;20292;-76
2022/11/12 10:42:33;;;;;;;0.10;0.10;;;;;;;;;;5016674;28;20235;-77
2022/11/12 10:45:22;;;;;;;0.00;0.00;;;;;;;;;;5017197;28;20222;-76
2022/11/12 10:48:21;;;;;;;0.00;0.00;;;;;;;;;;5017813;28;20231;-76
2022/11/12 10:51:19;;;;;;;0.00;0.00;;;;;;;;;;5018280;28;20207;-76
2022/11/12 10:54:28;;;;;;;0.00;0.00;;;;;;;;;;5019511;28;20208;-76
2022/11/12 10:57:20;;;;;;;0.00;0.00;;;;;;;;;;5018253;28;20215;-76
2022/11/12 11:00:07;;;;;;;0.07;0.07;;;;;;;;;;5016677;28;20207;-76
2022/11/12 11:02:55;;;;;;;0.10;0.10;;;;;;;;;;5015482;28;20231;-76
2022/11/12 11:05:49;;;;;;;0.10;0.10;;;;;;;;;;5015965;28;20238;-76
2022/11/12 11:08:38;;;;;;;0.03;0.03;;;;;;;;;;5018862;28;20743;-76
2022/11/12 11:11:25;;;;;;;0.00;0.00;;;;;;;;;;5015905;28;20210;-76
2022/11/12 11:14:25;;;;;;;0.10;0.10;;;;;;;;;;5020280;28;20214;-76
2022/11/12 11:17:17;;;;;;;0.00;0.00;;;;;;;;;;5022298;28;20208;-76
2022/11/12 11:20:04;;;;;;;0.00;0.00;;;;;;;;;;5018539;28;20204;-76
2022/11/12 11:22:53;;;;;;;0.00;0.00;;;;;;;;;;5019705;28;20245;-76
2022/11/12 11:25:40;;;;;;;0.10;0.10;;;;;;;;;;5021780;28;20207;-75
2022/11/12 11:28:34;;;;;;;0.00;0.00;;;;;;;;;;5020451;28;20223;-76
2022/11/12 11:31:25;;;;;;;0.03;0.03;;;;;;;;;;5022988;28;20246;-76
2022/11/12 11:34:16;;;;;;;0.00;0.00;;;;;;;;;;5020622;28;20212;-76
2022/11/12 11:37:08;;;;;;;0.10;0.10;;;;;;;;;;5019656;28;20223;-76
2022/11/12 11:39:58;;;;;;;0.00;0.00;;;;;;;;;;5022569;28;20219;-77
2022/11/12 11:42:57;;;;;;;0.10;0.10;;;;;;;;;;5020092;28;20712;-76
2022/11/12 11:45:56;;;;;;;0.00;0.00;;;;;;;;;;5020726;28;20211;-76
2022/11/12 11:48:50;;;;;;;0.10;0.10;;;;;;;;;;5020285;28;20231;-75
2022/11/12 11:51:45;;;;;;;0.00;0.00;;;;;;;;;;5019472;28;20206;-79
2022/11/12 11:54:42;;;;;;;0.07;0.07;;;;;;;;;;5020934;28;20220;-76
2022/11/12 11:57:29;;;;;;;0.10;0.10;;;;;;;;;;5021501;28;20257;-76
2022/11/12 12:00:18;;;;;;;0.00;0.00;;;;;;;;;;5021252;28;20199;-76
2022/11/12 12:03:17;;;;;;;0.00;0.00;;;;;;;;;;5020788;28;20219;-77
2022/11/12 12:06:19;;;;;;;0.00;0.00;;;;;;;;;;5020414;28;20198;-77
2022/11/12 12:09:14;;;;;;;0.00;0.00;;;;;;;;;;5022103;28;20227;-76
2022/11/12 12:12:05;;;;;;;0.00;0.00;;;;;;;;;;5020399;28;20334;-82
2022/11/12 12:14:54;;;;;;;0.00;0.00;;;;;;;;;;5020646;28;20219;-77
2022/11/12 12:20:51;;;;;;;0.00;0.00;;;;;;;;;;5019060;28;20207;-77
2022/11/12 12:23:41;;;;;;;0.10;0.10;;;;;;;;;;5019982;28;20233;-77
2022/11/12 12:26:29;;;;;;;0.00;0.00;;;;;;;;;;5021399;28;20223;-77
2022/11/12 12:29:18;;;;;;;0.00;0.00;;;;;;;;;;5022862;28;20215;-78
2022/11/12 12:32:07;;;;;;;0.00;0.00;;;;;;;;;;5024730;28;20273;-77
2022/11/12 12:34:56;;;;;;;0.00;0.00;;;;;;;;;;5023780;28;20278;-76
2022/11/12 12:37:46;;;;;;;0.00;0.00;;;;;;;;;;5023758;28;20792;-77
2022/11/12 12:40:35;;;;;;;0.00;0.00;;;;;;;;;;5024514;28;20210;-75
2022/11/12 12:43:23;;;;;;;0.00;0.00;;;;;;;;;;5023083;28;20227;-76
2022/11/12 12:46:12;;;;;;;0.00;0.00;;;;;;;;;;5023099;28;20207;-77
2022/11/12 12:48:59;;;;;;;0.00;0.00;;;;;;;;;;5022111;28;20211;-76
2022/11/12 12:51:45;;;;;;;0.00;0.00;;;;;;;;;;5022557;28;20198;-75
2022/11/12 12:54:50;;;;;;;0.00;0.00;;;;;;;;;;5023770;28;20218;-75
2022/11/12 12:57:37;;;;;;;0.00;0.00;;;;;;;;;;5024673;28;20206;-75
2022/11/12 13:00:33;;;;;;;0.00;0.00;;;;;;;;;;5022579;28;20290;-76
2022/11/12 13:03:40;;;;;;;0.00;0.00;;;;;;;;;;5023107;28;20235;-77
2022/11/12 13:06:30;;;;;;;0.00;0.00;;;13.20;99.90;;;;;;5003149;28;20246;-76
2022/11/12 13:09:25;;;;;;;0.00;0.00;;;;;;;;;;5023929;28;20230;-77
2022/11/12 13:15:17;;;;;;;0.00;0.00;;;;;;;;;;5024649;28;20248;-77
2022/11/12 13:18:03;;;;;;;0.00;0.00;;;;;;;;;;5024736;28;20230;-77
2022/11/12 13:21:04;;;;;;;0.00;0.00;;;;;;;;;;5023073;28;20291;-77
2022/11/12 13:24:07;;;;;;;0.00;0.00;;;;;;;;;;5021814;28;20235;-77
2022/11/12 13:26:54;;;;;;;0.00;0.00;;;;;;;;;;5022379;28;20211;-76
2022/11/12 13:29:45;;;;;;;0.00;0.00;;;;;;;;;;5022943;28;20246;-75
2022/11/12 13:32:38;;;;;;;0.00;0.00;;;;;;;;;;5022942;28;20228;-75
2022/11/12 13:35:29;;;;;;;0.00;0.00;;;;;;;;;;5023883;28;20191;-75
2022/11/12 13:38:16;;;;;;;0.00;0.00;;;;;;;;;;5024032;28;20274;-75
2022/11/12 13:41:08;;;;;;;0.00;0.00;;;;;;;;;;5020268;28;20342;-76
2022/11/12 13:43:56;;;;;;;0.00;0.00;;;;;;;;;;5022493;28;20287;-75
2022/11/12 13:46:43;;;;;;;0.00;0.00;;;;;;;;;;5020257;28;20262;-74
2022/11/12 13:49:30;;;;;;;0.00;0.00;;;;;;;;;;5023750;28;20230;-74
2022/11/12 13:52:16;;;;;;;0.00;0.00;;;;;;;;;;5022075;28;20234;-75
2022/11/12 13:55:03;;;;;;;0.00;0.00;;;;;;;;;;5021956;28;20203;-76
2022/11/12 13:57:52;;;;;;;0.00;0.00;;;;;;;;;;5022093;28;20219;-75
2022/11/12 14:00:38;;;;;;;0.00;0.00;;;;;;;;;;5021564;28;20212;-75
2022/11/12 14:03:26;;;;;;;0.00;0.00;;;;;;;;;;5020612;28;20227;-75
2022/11/12 14:06:17;;;;;;;0.00;0.00;;;;;;;;;;5020927;28;20346;-75
2022/11/12 14:09:20;;;;;;;0.00;0.00;;;;;;;;;;5022111;28;20788;-75
2022/11/12 14:12:14;;;;;;;0.00;0.00;;;;;;;;;;5020924;28;20242;-74
2022/11/12 14:15:17;;;;;;;0.00;0.00;;;;;;;;;;5016088;28;20223;-74
2022/11/12 14:18:09;;;;;;;0.00;0.00;;;;;;;;;;5017038;28;20210;-75
2022/11/12 14:20:55;;;;;;;0.00;0.00;;;;;;;;;;5016747;28;20207;-74
2022/11/12 14:23:44;;;;;;;0.00;0.00;;;;;;;;;;5016757;28;20247;-74
2022/11/12 14:26:37;;;;;;;0.00;0.00;;;;;;;;;;5017708;28;20219;-75
2022/11/12 14:29:23;;;;;;;0.00;0.00;;;;;;;;;;5017035;28;20277;-74
2022/11/12 14:32:11;;;;;;;0.00;0.00;;;;;;;;;;5018193;28;20904;-74
2022/11/12 14:34:58;;;;;;;0.00;0.00;;;;;;;;;;5019279;28;20219;-74
2022/11/12 14:37:47;;;;;;;0.00;0.00;;;;;;;;;;5016779;28;20207;-74
2022/11/12 14:40:34;;;;;;;0.00;0.00;;;;;;;;;;5013878;28;20214;-74
2022/11/12 14:43:22;;;;;;;0.00;0.00;;;;;;;;;;5017315;28;20234;-75
2022/11/12 14:46:09;;;;;;;0.00;0.00;;;;;;;;;;5017286;28;20242;-74
2022/11/12 14:49:00;;;;;;;0.00;0.00;;;;;;;;;;5016111;28;20370;-74
2022/11/12 14:51:48;;;;;;;0.10;0.10;;;;;;;;;;5015367;28;20211;-75
2022/11/12 14:54:35;;;;;;;0.00;0.00;;;;;;;;;;5018723;28;20207;-74
2022/11/12 14:57:24;;;;;;;0.00;0.00;;;;;;;;;;5017765;28;20231;-74
2022/11/12 15:00:22;;;;;;;0.00;0.00;;;;;;;;;;5015678;28;20207;-75
2022/11/12 15:03:11;;;;;;;0.00;0.00;;;;;;;;;;5017181;28;20227;-75
2022/11/12 15:06:08;;;;;;;0.10;0.10;;;;;;;;;;5018034;28;20683;-75
2022/11/12 15:08:57;;;;;;;0.00;0.00;;;;;;;;;;5015565;28;20223;-75
2022/11/12 15:11:44;;;;;;;0.10;0.10;;;;;;;;;;5017848;28;20218;-75
2022/11/12 15:14:30;;;;;;;0.00;0.00;;;;;;;;;;5019503;28;20222;-74
2022/11/12 15:17:27;;;;;;;0.00;0.00;;;;;;;;;;5019969;28;20262;-75
2022/11/12 15:20:15;;;;;;;0.00;0.00;;;;;;;;;;5021524;28;20677;-74
2022/11/12 15:23:03;;;;;;;0.00;0.00;;;;;;;;;;5021530;28;20234;-75
2022/11/12 15:25:58;;;;;;;0.00;0.00;;;;;;;;;;5018854;28;20334;-74
2022/11/12 15:28:58;;;;;;;0.00;0.00;;;;;;;;;;5019789;28;20719;-74
2022/11/12 15:31:45;;;;;;;0.00;0.00;;;;;;;;;;5021981;28;20226;-75
2022/11/12 15:34:33;;;;;;;0.00;0.00;;;;;;;;;;5020609;28;20214;-74
2022/11/12 15:37:24;;;;;;;0.00;0.00;;;;;;;;;;5020583;28;20202;-74
2022/11/12 15:40:14;;;;;;;0.00;0.00;;;;;;;;;;5022568;28;20203;-75
2022/11/12 15:43:01;;;;;;;0.00;0.00;;;;;;;;;;5020750;28;20234;-75
2022/11/12 15:45:49;;;;;;;0.03;0.03;;;;;;;;;;5020105;28;20254;-75
2022/11/12 15:48:35;;;;;;;0.10;0.10;;;;;;;;;;5020680;28;20222;-75
2022/11/12 15:51:21;;;;;;;0.00;0.00;;;;;;;;;;5016184;28;20610;-74
2022/11/12 15:54:07;;;;;;;0.00;0.00;;;;;;;;;;5013583;28;20291;-75
2022/11/12 15:56:55;;;;;;;0.00;0.00;;;;;;;;;;5012160;28;20598;-73
2022/11/12 15:59:41;;;;;;;0.00;0.00;;;;;;;;;;5013565;28;21177;-74
2022/11/12 16:02:30;;;;;;;0.00;0.00;;;;;;;;;;5012160;28;20243;-74
2022/11/12 16:05:18;;;;;;;0.10;0.10;;;;;;;;;;5020031;28;20829;-74
2022/11/12 16:08:04;;;;;;;0.10;0.10;;;;;;;;;;5019879;28;20610;-74
2022/11/12 16:10:50;;;;;;;0.10;0.10;;;;;;;;;;5020024;28;20601;-74
2022/11/12 16:13:38;;;;;;;0.00;0.00;;;;;;;;;;5017764;28;20626;-75
2022/11/12 16:16:25;;;;;;;0.00;0.00;;;;;;;;;;5016771;28;20594;-75
2022/11/12 16:19:15;;;;;;;0.10;0.10;;;;;;;;;;5019786;28;20590;-74
2022/11/12 16:22:01;;;;;;;0.10;0.10;;;;;;;;;;5015266;28;20633;-73
2022/11/12 16:24:47;;;;;;;0.10;0.10;;;;;;;;;;5016975;28;20642;-73
2022/11/12 16:27:35;;;;;;;0.10;0.10;;;;;;;;;;5019838;28;20966;-73
2022/11/12 16:30:26;;;;;;;0.10;0.10;;;;;;;;;;5019121;28;20669;-74
2022/11/12 16:33:13;;;;;;;0.00;0.00;;;;;;;;;;5016632;28;21253;-74
2022/11/12 16:35:59;;;;;;;0.10;0.10;;;;;;;;;;5018896;28;20598;-74
2022/11/12 16:38:46;;;;;;;0.03;0.03;;;;;;;;;;5018056;28;20597;-74
2022/11/12 16:41:33;;;;;;;0.10;0.10;;;;;;;;;;5019550;28;20663;-75
2022/11/12 16:44:19;;;;;;;0.10;0.10;;;;;;;;;;5020691;28;20594;-75
2022/11/12 16:47:07;;;;;;;0.10;0.10;;;;;;;;;;5019282;28;20606;-75
2022/11/12 16:49:53;;;;;;;0.00;0.00;;;;;;;;;;5018261;28;20769;-75
2022/11/12 16:52:39;;;;;;;0.10;0.10;;;;;;;;;;5021062;28;20625;-74
2022/11/12 16:55:25;;;;;;;0.10;0.10;;;;;;;;;;5020321;28;20597;-74
2022/11/12 16:58:13;;;;;;;0.00;0.00;;;;;;;;;;5021179;28;20606;-75
2022/11/12 17:00:59;;;;;;;0.10;0.10;;;;;;;;;;5019194;28;20589;-75
2022/11/12 17:03:47;;;;;;;0.10;0.10;;;;;;;;;;5018523;28;20637;-75
2022/11/12 17:06:35;;;;;;;0.10;0.10;;;;;;;;;;5020906;28;20606;-75
2022/11/12 17:09:21;;;;;;;0.10;0.10;;;;;;;;;;5018164;28;20699;-74
2022/11/12 17:12:08;;;;;;;0.10;0.10;;;;;;;;;;5016985;28;20630;-75
2022/11/12 17:14:54;;;;;;;0.00;0.00;;;;;;;;;;5018033;28;20594;-74
2022/11/12 17:17:40;;;;;;;0.00;0.00;;;;;;;;;;5018047;28;20597;-75
2022/11/12 17:20:28;;;;;;;0.10;0.10;;;;;;;;;;5017337;28;20605;-74